Time;durP1;ratioP1;P1;durP2;ratioP2;P2;SDS_P1;SDS_P2;PMS_P1;PMS_P2;Temp;Humidity;BMP_temperature;BMP_pressure;BME280_temperature;BME280_humidity;BME280_pressure;Samples;Min_cycle;Max_cycle;Signal;HPM_P1;HPM_P2
2022/05/18 05:10:59;;;;;;;;;2.00;2.00;;;;;21.24;100.00;100779.47;6378932;22;45855;-91
2022/05/18 05:13:25;;;;;;;;;1.00;1.00;;;;;21.27;100.00;100790.16;6371488;22;45488;-95
2022/05/18 05:15:54;;;;;;;;;0.33;0.33;;;;;21.31;100.00;100799.97;6371344;22;48405;-95
2022/05/18 05:18:20;;;;;;;;;3.33;1.00;;;;;21.42;100.00;100802.63;6397716;22;45300;-96
2022/05/18 05:20:45;;;;;;;;;1.00;1.00;;;;;21.43;100.00;100808.00;6371561;22;45280;-96
2022/05/18 05:23:11;;;;;;;;;2.00;1.00;;;;;21.46;100.00;100809.78;6370958;22;45201;-93
2022/05/18 05:25:36;;;;;;;;;2.67;2.00;;;;;21.53;100.00;100822.22;6369700;22;47096;-91
2022/05/18 05:28:01;;;;;;;;;1.00;1.00;;;;;21.60;100.00;100827.56;6397289;22;47596;-90
2022/05/18 05:30:27;;;;;;;;;2.00;2.00;;;;;21.64;100.00;100830.25;6369648;22;45377;-94
2022/05/18 05:32:52;;;;;;;;;1.00;1.00;;;;;21.75;100.00;100834.72;6369644;22;45317;-94
2022/05/18 05:35:18;;;;;;;;;1.00;1.00;;;;;21.79;100.00;100836.50;6406351;22;54427;-96
2022/05/18 05:37:46;;;;;;;;;1.00;1.00;;;;;21.83;100.00;100840.03;6365268;22;46220;-94
2022/05/18 05:40:12;;;;;;;;;2.00;2.00;;;;;21.90;100.00;100844.53;6379437;22;46385;-93
2022/05/18 05:42:40;;;;;;;;;1.67;1.00;;;;;22.03;100.00;100868.59;6373058;22;45245;-96
2022/05/18 05:45:06;;;;;;;;;3.00;1.00;;;;;22.02;100.00;100859.66;6379096;22;46665;-95
2022/05/18 05:47:31;;;;;;;;;0.67;0.67;;;;;22.04;100.00;100862.31;6374868;22;45377;-88
2022/05/18 05:49:57;;;;;;;;;1.67;1.00;;;;;22.12;100.00;100865.00;6368236;22;45314;-95
2022/05/18 05:52:22;;;;;;;;;2.00;1.00;;;;;22.25;100.00;100876.56;6364797;22;45307;-96
2022/05/18 05:54:47;;;;;;;;;1.33;1.33;;;;;22.29;100.00;100870.34;6366904;22;46953;-95
2022/05/18 05:57:13;;;;;;;;;0.00;0.00;;;;;22.37;100.00;100884.56;6365482;22;45309;-94
2022/05/18 05:59:38;;;;;;;;;2.00;1.00;;;;;22.42;100.00;100888.13;6367101;22;45360;-92
2022/05/18 06:02:08;;;;;;;;;1.00;1.00;;;;;22.46;100.00;100893.47;6365199;22;45680;-94
2022/05/18 06:04:35;;;;;;;;;1.00;1.00;;;;;22.50;100.00;100890.78;6367631;22;46519;-96
2022/05/18 06:07:01;;;;;;;;;2.00;2.00;;;;;22.55;100.00;100891.66;6365212;22;45657;-94
2022/05/18 06:09:27;;;;;;;;;0.67;0.67;;;;;22.62;100.00;100897.91;6367656;22;45429;-96
2022/05/18 06:11:52;;;;;;;;;0.67;0.67;;;;;22.68;100.00;100904.13;6366491;22;45249;-96
2022/05/18 06:14:18;;;;;;;;;1.00;1.00;;;;;22.73;100.00;100915.75;6368342;22;67906;-95
2022/05/18 06:16:46;;;;;;;;;2.00;1.00;;;;;22.75;100.00;100921.97;6363553;22;45358;-95
2022/05/18 06:19:15;;;;;;;;;2.00;1.00;;;;;22.76;100.00;100929.97;6365208;22;45420;-95
2022/05/18 06:21:41;;;;;;;;;0.33;0.00;;;;;22.77;100.00;100925.53;6364326;22;45335;-93
2022/05/18 06:24:07;;;;;;;;;0.00;0.00;;;;;22.82;100.00;100922.84;6392023;22;46326;-93
2022/05/18 06:26:32;;;;;;;;;1.33;1.00;;;;;22.88;100.00;100920.16;6368844;22;45573;-92
2022/05/18 06:28:58;;;;;;;;;1.67;1.00;;;;;22.94;100.00;100927.25;6362810;22;45870;-96
2022/05/18 06:31:23;;;;;;;;;3.00;1.00;;;;;22.98;100.00;100921.91;6367458;22;45385;-95
2022/05/18 06:33:49;;;;;;;;;1.00;1.00;;;;;23.08;100.00;100933.47;6365732;22;46044;-95
2022/05/18 06:36:15;;;;;;;;;0.67;0.67;;;;;23.14;100.00;100942.34;6364899;22;45298;-95
2022/05/18 06:38:42;;;;;;;;;0.33;0.33;;;;;23.18;100.00;100934.31;6339513;22;45267;-95
2022/05/18 06:41:23;;;;;;;;;1.00;1.00;;;;;23.25;100.00;100943.19;6367910;22;45119;-94
2022/05/18 06:43:56;;;;;;;;;1.00;0.00;;;;;23.40;100.00;100949.38;6370674;22;45385;-96
2022/05/18 06:46:23;;;;;;;;;1.00;1.00;;;;;23.62;100.00;100955.53;6371302;22;45226;-96
2022/05/18 06:48:49;;;;;;;;;0.33;0.33;;;;;23.83;100.00;100952.72;6369587;22;45276;-95
2022/05/18 06:51:19;;;;;;;;;1.00;1.00;;;;;24.15;100.00;100951.56;6370298;22;45258;-95
2022/05/18 06:53:45;;;;;;;;;1.00;1.00;;;;;24.28;100.00;100972.94;6375218;22;45454;-96
2022/05/18 06:56:11;;;;;;;;;0.33;0.33;;;;;24.31;100.00;100973.81;6371106;22;45528;-96
2022/05/18 06:58:37;;;;;;;;;1.00;1.00;;;;;24.32;100.00;100972.03;6366246;22;45363;-96
2022/05/18 07:01:04;;;;;;;;;0.00;0.00;;;;;24.36;100.00;100978.25;6372472;22;45341;-96
2022/05/18 07:03:29;;;;;;;;;0.00;0.00;;;;;24.33;100.00;100973.81;6371983;22;46283;-96
2022/05/18 07:08:37;;;;;;;;;1.00;1.00;;;;;24.37;100.00;100969.31;6388839;22;45855;-95
2022/05/18 07:11:03;;;;;;;;;1.00;1.00;;;;;24.31;100.00;100960.41;6372024;22;45506;-94
2022/05/18 07:13:37;;;;;;;;;1.33;0.00;;;;;24.37;100.00;100967.53;6371481;22;47091;-95
2022/05/18 07:16:04;;;;;;;;;1.33;0.33;;;;;24.39;100.00;100978.22;6370839;22;45288;-95
2022/05/18 07:18:31;;;;;;;;;0.33;0.33;;;;;24.44;100.00;100993.38;6375917;22;45350;-96
2022/05/18 07:20:58;;;;;;;;;0.00;0.00;;;;;24.48;100.00;100994.22;6372568;22;45415;-95
2022/05/18 07:23:25;;;;;;;;;0.00;0.00;;;;;24.47;100.00;100981.75;6399072;22;46673;-96
2022/05/18 07:25:52;;;;;;;;;0.33;0.33;;;;;24.48;100.00;100980.81;6372438;22;45264;-96
2022/05/18 07:28:17;;;;;;;;;0.00;0.00;;;;;24.71;100.00;101000.31;6370702;22;45353;-95
2022/05/18 07:30:43;;;;;;;;;1.00;1.00;;;;;24.72;100.00;100991.34;6371520;22;45521;-92
2022/05/18 07:33:08;;;;;;;;;0.67;0.67;;;;;24.84;100.00;100999.25;6371099;22;46507;-96
2022/05/18 07:35:33;;;;;;;;;2.00;1.00;;;;;24.88;100.00;100995.66;6374259;22;45186;-96
2022/05/18 07:37:59;;;;;;;;;2.00;1.00;;;;;24.94;100.00;100994.69;6373643;22;45566;-96
2022/05/18 07:40:25;;;;;;;;;0.33;0.33;;;;;25.07;100.00;101000.84;6401681;22;45099;-96
2022/05/18 07:42:54;;;;;;;;;1.00;1.00;;;;;25.18;100.00;101005.19;6408529;22;45382;-96
2022/05/18 07:45:21;;;;;;;;;0.00;0.00;;;;;25.20;100.00;101000.72;6396711;22;45219;-96
2022/05/18 07:47:46;;;;;;;;;0.00;0.00;;;;;25.29;100.00;101014.00;6422297;22;44625;-96
2022/05/18 07:50:12;;;;;;;;;1.67;0.00;;;;;25.36;100.00;101012.13;6386083;22;44869;-86
2022/05/18 07:52:38;;;;;;;;;2.67;1.00;;;;;25.47;100.00;101033.50;6369275;22;45930;-87
2022/05/18 07:55:04;;;;;;;;;0.00;0.00;;;;;25.51;100.00;101027.16;6394986;22;45650;-86
2022/05/18 07:57:29;;;;;;;;;1.67;1.67;;;;;25.59;100.00;101020.81;6366813;22;45384;-87
2022/05/18 07:59:56;;;;;;;;;0.33;0.33;;;;;25.67;100.00;101019.78;6368512;22;45299;-90
2022/05/18 08:02:21;;;;;;;;;1.00;1.00;;;;;25.79;100.00;101036.72;6367083;22;48082;-87
2022/05/18 08:04:46;;;;;;;;;0.00;0.00;;;;;25.91;100.00;101034.72;6396496;22;45290;-89
2022/05/18 08:07:12;;;;;;;;;4.67;4.67;;;;;25.99;100.00;101043.59;6366195;22;57782;-89
2022/05/18 08:15:05;;;;;;;;;3.67;2.67;;;;;26.11;100.00;101035.31;6368808;22;45277;-88
2022/05/18 08:15:07;;;;;;;;;1.33;1.33;;;;;26.44;100.00;101058.19;6397692;22;45359;-87
2022/05/18 08:17:32;;;;;;;;;4.33;4.33;;;;;26.55;100.00;101058.88;6395488;22;45261;-87
2022/05/18 08:19:58;;;;;;;;;1.00;1.00;;;;;26.65;100.00;101058.72;6396197;22;45289;-87
2022/05/18 08:22:23;;;;;;;;;2.00;1.67;;;;;26.69;100.00;101063.16;6367648;22;49136;-87
2022/05/18 08:24:48;;;;;;;;;2.33;2.33;;;;;26.70;100.00;101064.03;6397236;22;48764;-88
2022/05/18 08:27:16;;;;;;;;;2.00;2.00;;;;;26.75;100.00;101068.41;6395724;22;59862;-88
2022/05/18 08:29:42;;;;;;;;;1.67;1.00;;;;;26.81;100.00;101080.88;6396394;22;45363;-87
2022/05/18 08:32:07;;;;;;;;;1.33;1.33;;;;;26.83;100.00;101070.06;6394584;22;46362;-88
2022/05/18 08:34:33;;;;;;;;;0.00;0.00;;;;;26.84;100.00;101061.09;6395615;22;45446;-87
2022/05/18 08:37:00;;;;;;;;;0.00;0.00;;;;;26.85;100.00;101068.25;6397360;22;45600;-87
2022/05/18 08:39:25;;;;;;;;;1.67;1.67;;;;;26.84;100.00;101071.84;6368492;22;45529;-87
2022/05/18 08:41:51;;;;;;;;;2.00;1.00;;;;;26.81;100.00;101075.50;6363216;22;63961;-87
2022/05/18 08:44:25;;;;;;;;;0.33;0.33;;;;;26.87;100.00;101064.63;6395875;22;45369;-87
2022/05/18 08:47:25;;;;;;;;;1.00;1.00;;;;;26.92;100.00;101058.25;6395883;22;45500;-88
2022/05/18 08:50:10;;;;;;;;;2.33;1.67;;;;;27.09;100.00;101064.19;6368290;22;45253;-88
2022/05/18 08:53:14;;;;;;;;;1.00;1.00;;;;;27.20;100.00;101066.72;6395692;22;45597;-88
2022/05/18 08:55:43;;;;;;;;;0.67;0.67;;;;;27.30;100.00;101070.13;6366210;22;45882;-88
2022/05/18 08:58:28;;;;;;;;;1.33;1.33;;;;;27.48;100.00;101067.06;6396337;22;45400;-88
2022/05/18 09:00:58;;;;;;;;;1.00;1.00;;;;;27.65;100.00;101074.81;6368894;22;45505;-89
2022/05/18 09:03:32;;;;;;;;;2.00;1.33;;;;;27.86;100.00;101060.00;6366223;22;48038;-88
2022/05/18 09:06:05;;;;;;;;;1.00;1.00;;;;;28.07;100.00;101078.41;6367550;22;45426;-88
2022/05/18 09:08:37;;;;;;;;;1.00;1.00;;;;;28.19;100.00;101088.06;6366627;22;45427;-87
2022/05/18 09:11:19;;;;;;;;;2.33;0.67;;;;;28.16;100.00;101080.91;6367412;22;45400;-88
2022/05/18 09:13:45;;;;;;;;;0.67;0.67;;;;;28.11;100.00;101083.72;6364849;22;47361;-86
2022/05/18 09:16:35;;;;;;;;;3.00;2.00;;;;;28.10;100.00;101091.84;6393401;22;45617;-86
2022/05/18 09:19:03;;;;;;;;;1.00;1.00;;;;;28.11;100.00;101090.94;6395205;22;45378;-87
2022/05/18 09:22:14;;;;;;;;;1.00;1.00;;;;;28.15;100.00;101092.63;6395575;22;45264;-88
2022/05/18 09:24:45;;;;;;;;;2.00;2.00;;;;;28.17;100.00;101087.19;6367163;22;48267;-87
2022/05/18 09:27:37;;;;;;;;;3.67;2.00;;;;;28.23;100.00;101087.94;6396001;22;45315;-86
2022/05/18 09:30:16;;;;;;;;;1.00;1.00;;;;;28.29;100.00;101083.31;6207674;22;45654;-87
2022/05/18 09:33:09;;;;;;;;;2.00;2.00;;;;;28.36;100.00;101084.03;6232326;22;45410;-87
2022/05/18 09:35:40;;;;;;;;;1.00;1.00;;;;;28.43;100.00;101077.56;6236377;22;46101;-87
2022/05/18 09:38:32;;;;;;;;;1.00;0.00;;;;;28.64;100.00;101069.88;6242594;22;45360;-88
2022/05/18 09:43:46;;;;;;;;;1.00;1.00;;;;;30.18;100.00;101093.50;6365407;22;46239;-94
2022/05/18 09:46:16;;;;;;;;;4.00;3.00;;;;;30.96;100.00;101110.88;6367454;22;45603;-96
2022/05/18 09:48:53;;;;;;;;;3.67;2.33;;;;;32.23;100.00;101123.38;6364779;22;45382;-96
2022/05/18 09:51:19;;;;;;;;;3.00;2.00;;;;;33.82;100.00;101154.69;6368105;22;45317;-96
2022/05/18 09:53:44;;;;;;;;;1.00;1.00;;;;;35.71;99.09;101202.63;6365199;22;45606;-96
2022/05/18 09:56:26;;;;;;;;;1.67;1.67;;;;;37.88;96.66;101452.06;6369676;22;48116;-92
2022/05/18 09:58:57;;;;;;;;;3.00;3.00;;;;;39.75;92.93;101519.97;6364997;22;46158;-94
2022/05/18 10:07:27;;;;;;;;;0.33;0.00;;;;;44.96;77.91;101674.34;6367950;22;45228;-96
2022/05/18 10:10:00;;;;;;;;;0.67;0.67;;;;;46.37;72.22;101699.63;6375058;22;45647;-96
2022/05/18 10:12:37;;;;;;;;;2.33;2.00;;;;;47.26;68.40;101707.84;6378869;22;45230;-94
2022/05/18 10:15:20;;;;;;;;;2.00;0.33;;;;;47.51;60.87;101735.13;6381195;22;45360;-95
2022/05/18 10:17:53;;;;;;;;;1.00;1.00;;;;;47.39;61.66;101723.34;6375591;22;45432;-96
2022/05/18 10:20:29;;;;;;;;;4.00;2.00;;;;;48.03;61.05;101735.59;6369455;22;45152;-96
2022/05/18 10:22:56;;;;;;;;;2.00;2.00;;;;;48.97;60.20;101735.25;6367985;22;45208;-95
2022/05/18 10:25:50;;;;;;;;;1.00;1.00;;;;;50.05;58.43;101736.84;6369302;22;45333;-96
2022/05/18 10:31:07;;;;;;;;;1.00;1.00;;;;;51.98;54.65;101733.72;6405370;22;45265;-96
2022/05/18 10:33:41;;;;;;;;;1.00;1.00;;;;;52.72;52.66;101722.13;6393227;22;46508;-96
2022/05/18 10:36:13;;;;;;;;;2.00;1.00;;;;;53.39;50.61;101738.22;6413115;22;45261;-95
2022/05/18 10:38:53;;;;;;;;;0.00;0.00;;;;;53.73;48.35;101731.13;6382123;22;46767;-95
2022/05/18 10:41:26;;;;;;;;;1.33;1.33;;;;;54.00;47.72;101730.56;6377508;22;45350;-95
2022/05/18 10:43:54;;;;;;;;;1.00;1.00;;;;;54.31;46.36;101736.06;6371383;22;45323;-96
2022/05/18 10:46:33;;;;;;;;;1.00;1.00;;;;;54.38;46.43;101725.78;6372361;22;45658;-96
2022/05/18 10:49:19;;;;;;;;;1.00;0.00;;;;;54.14;45.29;101731.59;6399735;22;45555;-96
2022/05/18 10:51:45;;;;;;;;;1.33;0.00;;;;;54.07;45.14;101728.69;6370539;22;45340;-95
2022/05/18 10:54:16;;;;;;;;;0.00;0.00;;;;;54.03;44.64;101726.50;6374653;22;45304;-93
2022/05/18 10:56:43;;;;;;;;;2.00;1.00;;;;;54.10;45.10;101733.03;6385892;22;44954;-96
2022/05/18 10:59:35;;;;;;;;;2.00;1.00;;;;;54.25;43.80;101726.50;6389701;22;46201;-96
2022/05/18 11:02:03;;;;;;;;;0.67;0.67;;;;;54.28;43.51;101726.97;6379013;22;45230;-96
2022/05/18 11:04:38;;;;;;;;;2.00;0.67;;;;;54.26;41.79;101726.31;6406485;22;44637;-95
2022/05/18 11:07:06;;;;;;;;;0.00;0.00;;;;;54.28;42.34;101726.97;6392344;22;45218;-96
2022/05/18 11:09:33;;;;;;;;;0.33;0.33;;;;;54.51;42.30;101716.59;6395113;22;47061;-96
2022/05/18 11:12:16;;;;;;;;;1.00;0.00;;;;;54.94;41.48;101721.28;6417285;22;45181;-96
2022/05/18 11:14:58;;;;;;;;;2.00;2.00;;;;;55.53;41.36;101719.16;6385572;22;45234;-96
2022/05/18 11:17:29;;;;;;;;;1.00;0.00;;;;;56.04;40.47;101711.31;6373546;22;46099;-96
2022/05/18 11:20:23;;;;;;;;;1.00;1.00;;;;;56.51;40.00;101721.75;6341491;22;46881;-96
2022/05/18 11:23:14;;;;;;;;;0.67;0.00;;;;;56.61;39.09;101707.22;6349909;22;45436;-96
2022/05/18 11:26:09;;;;;;;;;1.00;1.00;;;;;57.17;39.37;101718.16;6391131;22;44609;-96
2022/05/18 11:34:37;;;;;;;;;0.00;0.00;;;;;58.97;37.76;101704.28;6368051;22;45985;31
2022/05/18 11:37:06;;;;;;;;;3.00;1.67;;;;;59.71;37.04;101702.41;6324894;22;45261;-96
2022/05/18 11:40:24;;;;;;;;;1.67;0.33;;;;;60.45;36.30;101706.00;6359584;22;46200;-96
2022/05/18 11:42:57;;;;;;;;;0.00;0.00;;;;;60.92;35.04;101684.38;6365094;22;46535;-96
2022/05/18 11:45:43;;;;;;;;;0.00;0.00;;;;;61.29;34.33;101679.50;6392329;22;45353;-96
2022/05/18 11:48:32;;;;;;;;;1.00;0.33;;;;;61.67;34.43;101701.75;6396077;22;44679;-89
2022/05/18 11:51:18;;;;;;;;;0.00;0.00;;;;;61.85;32.79;101697.81;6394087;22;45217;-96
2022/05/18 11:53:55;;;;;;;;;3.00;1.67;;;;;61.71;32.72;101673.69;6394968;22;48007;-95
2022/05/18 11:56:39;;;;;;;;;0.67;0.67;;;;;61.90;32.84;101674.34;6424484;22;45327;-96
2022/05/18 11:59:30;;;;;;;;;0.00;0.00;;;;;61.98;32.52;101690.06;6422292;22;44667;-96
2022/05/18 12:02:32;;;;;;;;;1.00;1.00;;;;;62.37;32.66;101683.59;6398759;22;44974;-96
2022/05/18 12:05:12;;;;;;;;;2.00;2.00;;;;;62.79;31.91;101679.34;6360319;22;46796;-96
2022/05/18 12:08:25;;;;;;;;;0.00;0.00;;;;;63.10;31.55;101667.50;6427426;22;44693;-96
2022/05/18 12:11:13;;;;;;;;;2.33;0.33;;;;;62.55;30.57;101668.25;6385561;22;45183;-95
2022/05/18 12:14:07;;;;;;;;;1.00;1.00;;;;;62.51;30.69;101651.94;6390578;22;45914;-96
2022/05/18 12:16:59;;;;;;;;;0.00;0.00;;;;;63.17;30.39;101658.75;6288121;22;46567;-96
2022/05/18 12:19:36;;;;;;;;;0.00;0.00;;;;;63.72;29.07;101666.41;6285077;22;45199;-96
2022/05/18 12:22:20;;;;;;;;;0.33;0.33;;;;;64.01;29.17;101673.75;6290849;22;45326;-93
2022/05/18 12:24:48;;;;;;;;;0.00;0.00;;;;;64.12;28.04;101651.91;6288168;22;45258;-96
2022/05/18 12:27:16;;;;;;;;;0.00;0.00;;;;;64.40;27.79;101652.63;6293075;22;46535;-96
2022/05/18 12:29:43;;;;;;;;;1.00;1.00;;;;;64.69;28.12;101647.66;6289025;22;45302;-95
2022/05/18 12:32:11;;;;;;;;;0.00;0.00;;;;;64.88;28.09;101650.84;6292660;22;45250;-96
2022/05/18 12:34:43;;;;;;;;;1.33;0.00;;;;;65.08;27.97;101640.66;6268008;22;45458;-96
2022/05/18 12:37:14;;;;;;;;;0.00;0.00;;;;;65.52;27.85;101659.22;6262193;22;46747;-96
2022/05/18 12:40:03;;;;;;;;;0.00;0.00;;;;;65.84;27.46;101644.94;6295661;22;44777;-96
2022/05/18 12:42:33;;;;;;;;;1.00;1.00;;;;;66.16;27.02;101638.03;6295809;22;45221;-93
2022/05/18 12:45:26;;;;;;;;;0.00;0.00;;;;;66.37;26.51;101648.56;6295659;22;44797;-95
2022/05/18 12:48:11;;;;;;;;;1.33;0.00;;;;;66.42;27.21;101637.09;6285015;22;45518;-96
2022/05/18 12:50:55;;;;;;;;;1.00;0.33;;;;;66.09;26.02;101641.19;6290584;22;45297;-96
2022/05/18 12:53:41;;;;;;;;;0.00;0.00;;;;;65.49;26.08;101622.72;6338820;22;45377;-96
2022/05/18 12:56:17;;;;;;;;;0.00;0.00;;;;;65.38;26.23;101638.13;6380633;22;45293;-96
2022/05/18 12:58:45;;;;;;;;;0.00;0.00;;;;;65.18;26.58;101623.56;6377343;22;45429;-95
2022/05/18 13:01:18;;;;;;;;;0.00;0.00;;;;;65.32;26.03;101615.25;6383227;22;44730;-96
2022/05/18 13:04:02;;;;;;;;;0.00;0.00;;;;;65.62;26.30;101632.72;6387808;22;45017;-94
2022/05/18 13:06:36;;;;;;;;;0.00;0.00;;;;;65.40;25.84;101624.41;6370110;22;45259;-95
2022/05/18 13:09:23;;;;;;;;;1.00;0.00;;;;;64.94;25.93;101612.66;6372467;22;47269;-96
2022/05/18 13:11:53;;;;;;;;;1.00;0.00;;;;;64.58;26.29;101618.25;6373446;22;45257;-95
2022/05/18 13:14:29;;;;;;;;;0.00;0.00;;;;;64.35;25.74;101609.88;6376416;22;45497;-96
2022/05/18 13:16:55;;;;;;;;;0.00;0.00;;;;;64.16;26.53;101613.16;6375154;22;45416;-96
2022/05/18 13:19:25;;;;;;;;;0.00;0.00;;;;;64.40;26.21;101612.75;6382575;22;45215;-96
2022/05/18 13:21:50;;;;;;;;;0.00;0.00;;;;;64.40;25.95;101615.59;6379156;22;44738;-96
2022/05/18 13:24:38;;;;;;;;;0.00;0.00;;;;;64.25;26.03;101602.13;6383994;22;45337;-96
2022/05/18 13:27:36;;;;;;;;;1.00;1.00;;;;;63.86;26.16;101608.97;6383950;22;45758;-96
2022/05/18 13:30:09;;;;;;;;;0.00;0.00;;;;;64.17;26.26;101602.63;6369455;22;45354;-95
2022/05/18 13:32:36;;;;;;;;;0.00;0.00;;;;;64.77;25.32;101602.34;6375332;22;45337;-96
2022/05/18 13:35:07;;;;;;;;;0.00;0.00;;;;;65.55;25.70;101595.00;6368607;22;45350;-94
2022/05/18 13:37:33;;;;;;;;;0.00;0.00;;;;;65.97;25.53;101587.25;6374084;22;45492;-96
2022/05/18 13:39:58;;;;;;;;;0.00;0.00;;;;;66.33;25.10;101588.25;6380127;22;47110;-96
2022/05/18 13:42:28;;;;;;;;;0.00;0.00;;;;;66.50;25.20;101589.94;6388050;22;45329;-96
2022/05/18 13:44:57;;;;;;;;;0.00;0.00;;;;;66.37;24.38;101577.94;6372087;22;45365;-96
2022/05/18 13:47:27;;;;;;;;;0.75;0.75;;;;;66.16;24.71;101582.91;6368015;22;45304;-95
2022/05/18 13:49:53;;;;;;;;;0.00;0.00;;;;;66.00;24.27;101580.09;6371959;22;46005;-96
2022/05/18 13:52:29;;;;;;;;;0.00;0.00;;;;;65.87;24.86;101567.25;6371198;22;45308;-96
2022/05/18 13:54:59;;;;;;;;;1.50;0.50;;;;;65.74;24.67;101569.59;6370152;22;45395;-96
2022/05/18 13:57:33;;;;;;;;;0.00;0.00;;;;;65.56;24.87;101571.03;6374958;22;45410;-96
2022/05/18 14:00:00;;;;;;;;;0.00;0.00;;;;;65.46;24.68;101562.47;6375535;22;46049;-96
2022/05/18 14:02:32;;;;;;;;;0.00;0.00;;;;;65.28;25.09;101567.63;6373784;22;45243;-95
2022/05/18 14:05:06;;;;;;;;;1.00;0.50;;;;;65.24;24.83;101550.19;6370769;22;45301;-96
2022/05/18 14:07:37;;;;;;;;;0.00;0.00;;;;;65.22;24.59;101541.94;6368008;22;45666;-96
2022/05/18 14:10:05;;;;;;;;;0.50;0.50;;;;;65.37;24.51;101536.50;6367013;22;48046;-96
2022/05/18 14:12:31;;;;;;;;;0.00;0.00;;;;;65.27;24.69;101535.38;6371348;22;45566;-94
2022/05/18 14:14:56;;;;;;;;;0.00;0.00;;;;;65.18;25.12;101528.53;6368756;22;45297;-95
2022/05/18 14:17:31;;;;;;;;;0.00;0.00;;;;;65.10;24.99;101525.13;6379223;22;45101;-95
2022/05/18 14:20:03;;;;;;;;;0.00;0.00;;;;;65.08;25.00;101524.53;6375151;22;45453;-95
2022/05/18 14:22:31;;;;;;;;;0.25;0.00;;;;;65.07;24.90;101513.41;6365547;22;45725;-92
2022/05/18 14:25:07;;;;;;;;;0.00;0.00;;;;;64.74;24.69;101508.81;6365463;22;45352;-95
2022/05/18 14:27:50;;;;;;;;;0.00;0.00;;;;;63.99;24.92;101506.00;6356097;22;45777;-88
2022/05/18 14:30:21;;;;;;;;;0.00;0.00;;;;;62.78;24.75;101492.84;6359506;22;46435;-87
2022/05/18 14:32:51;;;;;;;;;0.00;0.00;;;;;61.42;25.85;101488.16;6373074;22;45239;-94
2022/05/18 14:35:21;;;;;;;;;1.00;0.00;;;;;60.84;26.04;101491.97;6375196;22;45328;-93
2022/05/18 14:37:55;;;;;;;;;0.00;0.00;;;;;60.81;26.55;101483.97;6377065;22;45772;-94
2022/05/18 14:40:24;;;;;;;;;0.00;0.00;;;;;60.90;26.48;101484.44;6375913;22;46105;-95
2022/05/18 14:42:53;;;;;;;;;1.00;0.00;;;;;60.99;26.23;101484.88;6370418;22;45399;-95
2022/05/18 14:45:40;;;;;;;;;0.50;0.50;;;;;60.99;26.61;101479.22;6369383;22;45320;-95
2022/05/18 14:48:05;;;;;;;;;0.00;0.00;;;;;60.82;26.31;101482.88;6369205;22;45230;-95
2022/05/18 14:50:38;;;;;;;;;0.00;0.00;;;;;60.18;26.61;101470.53;6399246;22;45977;-96
2022/05/18 14:53:13;;;;;;;;;0.00;0.00;;;;;58.30;26.76;101461.81;6370295;22;45336;-94
2022/05/18 14:55:47;;;;;;;;;0.00;0.00;;;;;55.89;27.43;101463.81;6370903;22;45347;-96
2022/05/18 14:58:27;;;;;;;;;0.00;0.00;;;;;53.32;28.54;101456.91;6371807;22;45345;-96
2022/05/18 15:00:57;;;;;;;;;0.00;0.00;;;;;51.16;29.19;101455.28;6400691;22;47947;-92
2022/05/18 15:03:27;;;;;;;;;0.00;0.00;;;;;49.25;30.17;101452.78;6372196;22;45265;-93
2022/05/18 15:05:55;;;;;;;;;0.00;0.00;;;;;47.60;31.21;101453.44;6372668;22;45257;-96
2022/05/18 15:08:41;;;;;;;;;0.00;0.00;;;;;46.05;32.32;101443.75;6399897;22;45359;-96
2022/05/18 15:11:12;;;;;;;;;0.00;0.00;;;;;44.80;32.96;101436.78;6424420;22;46399;-94
2022/05/18 15:13:54;;;;;;;;;0.00;0.00;;;;;43.70;34.18;101443.56;6397664;22;44857;-95
2022/05/18 15:16:39;;;;;;;;;0.00;0.00;;;;;42.70;35.81;101434.28;6395130;22;45400;-95
2022/05/18 15:19:17;;;;;;;;;1.33;0.00;;;;;41.86;36.91;101425.22;6384279;22;45247;-94
2022/05/18 15:21:42;;;;;;;;;0.00;0.00;;;;;41.16;36.95;101428.69;6400153;22;46424;-93
2022/05/18 15:24:25;;;;;;;;;0.00;0.00;;;;;40.45;38.31;101425.47;6401617;22;45154;-95
2022/05/18 15:26:53;;;;;;;;;0.00;0.00;;;;;39.84;39.17;101433.34;6371477;22;45290;-96
2022/05/18 15:29:21;;;;;;;;;0.00;0.00;;;;;39.34;39.93;101428.44;6401142;22;45211;-96
2022/05/18 15:32:02;;;;;;;;;0.00;0.00;;;;;38.88;40.81;101425.91;6369842;22;47264;-95
2022/05/18 15:34:33;;;;;;;;;0.00;0.00;;;;;38.45;41.42;101405.72;6372364;22;46059;-96
2022/05/18 15:36:59;;;;;;;;;0.67;0.00;;;;;38.16;41.90;101408.41;6371547;22;45429;-94
2022/05/18 15:39:25;;;;;;;;;0.00;0.00;;;;;37.86;42.80;101396.47;6370135;22;45328;-93
2022/05/18 15:41:51;;;;;;;;;1.00;0.00;;;;;37.50;43.21;101403.25;6367678;22;48492;-96
2022/05/18 15:44:17;;;;;;;;;0.00;0.00;;;;;37.14;43.61;101400.69;6371440;22;45694;-96
2022/05/18 15:46:49;;;;;;;;;0.00;0.00;;;;;36.96;44.17;101405.34;6399983;22;45247;-96
2022/05/18 15:49:23;;;;;;;;;0.00;0.00;;;;;36.72;44.07;101401.19;6379317;22;45304;-95
2022/05/18 15:51:51;;;;;;;;;0.00;0.00;;;;;36.52;44.71;101396.84;6381425;22;47011;-95
2022/05/18 15:54:20;;;;;;;;;0.00;0.00;;;;;36.34;44.83;101394.09;6407064;22;45161;-95
2022/05/18 15:56:45;;;;;;;;;0.00;0.00;;;;;36.15;45.27;101386.91;6372947;22;45531;-95
2022/05/18 15:59:11;;;;;;;;;0.33;0.33;;;;;35.97;45.84;101381.47;6398404;22;45488;-96
2022/05/18 16:01:36;;;;;;;;;0.00;0.00;;;;;35.79;46.32;101388.75;6372163;22;47069;-95
2022/05/18 16:04:01;;;;;;;;;0.00;0.00;;;;;35.59;46.39;101387.91;6369268;22;48343;-96
2022/05/18 16:06:34;;;;;;;;;0.67;0.67;;;;;35.39;47.15;101373.47;6370085;22;45382;-95
2022/05/18 16:09:01;;;;;;;;;0.00;0.00;;;;;35.22;47.20;101383.38;6372188;22;45217;-96
2022/05/18 16:11:31;;;;;;;;;0.00;0.00;;;;;35.07;47.62;101381.41;6398942;22;45460;-96
2022/05/18 16:13:56;;;;;;;;;1.00;0.00;;;;;34.87;47.72;101392.31;6370619;22;45914;-92
2022/05/18 16:16:22;;;;;;;;;1.33;1.33;;;;;34.67;48.22;101385.03;6395987;22;45303;-94
2022/05/18 16:18:47;;;;;;;;;0.00;0.00;;;;;34.49;48.25;101386.78;6397895;22;45583;-94
2022/05/18 16:21:22;;;;;;;;;0.33;0.00;;;;;34.28;48.86;101374.06;6371685;22;47024;-95
2022/05/18 16:23:49;;;;;;;;;0.67;0.33;;;;;34.16;49.07;101374.63;6373978;22;45210;-96
2022/05/18 16:26:15;;;;;;;;;0.33;0.33;;;;;34.02;49.34;101373.41;6381159;22;45292;-96
2022/05/18 16:28:42;;;;;;;;;0.33;0.00;;;;;33.93;49.64;101361.09;6380042;22;45309;-96
2022/05/18 16:31:07;;;;;;;;;0.00;0.00;;;;;33.87;50.48;101347.75;6410160;22;45507;-96
2022/05/18 16:33:33;;;;;;;;;0.33;0.00;;;;;33.77;50.22;101360.88;6402526;22;45405;-96
2022/05/18 16:36:00;;;;;;;;;0.33;0.33;;;;;33.74;50.50;101363.69;6371990;22;45363;-95
2022/05/18 16:38:27;;;;;;;;;0.00;0.00;;;;;33.72;50.99;101354.72;6370765;22;45305;-95
2022/05/18 16:41:00;;;;;;;;;0.00;0.00;;;;;33.65;50.99;101343.22;6370608;22;47227;-96
2022/05/18 16:43:29;;;;;;;;;1.33;1.33;;;;;33.63;51.44;101339.69;6370730;22;45574;-96
2022/05/18 16:45:57;;;;;;;;;0.00;0.00;;;;;33.61;51.68;101347.00;6371281;22;45393;-96
2022/05/18 16:48:23;;;;;;;;;0.00;0.00;;;;;33.52;51.70;101348.31;6372646;22;45363;-96
2022/05/18 16:50:49;;;;;;;;;1.00;0.00;;;;;33.44;51.67;101345.91;6351073;22;46339;-96
2022/05/18 16:53:15;;;;;;;;;1.00;1.00;;;;;33.36;52.30;101345.34;6373849;22;45675;-96
2022/05/18 16:55:40;;;;;;;;;0.00;0.00;;;;;33.28;52.46;101340.25;6376283;22;45212;-96
2022/05/18 16:58:06;;;;;;;;;1.00;1.00;;;;;33.20;52.82;101335.97;6374502;22;45350;-96
2022/05/18 17:00:31;;;;;;;;;0.00;0.00;;;;;33.15;52.87;101327.13;6405200;22;46110;-96
2022/05/18 17:02:57;;;;;;;;;0.00;0.00;;;;;33.08;52.87;101328.34;6380433;22;45457;-96
2022/05/18 17:10:51;;;;;;;;;0.00;0.00;;;;;32.85;53.75;101330.16;6402577;22;45613;-96
2022/05/18 17:13:23;;;;;;;;;0.00;0.00;;;;;32.80;53.97;101315.88;6409248;22;45305;-96
2022/05/18 17:15:48;;;;;;;;;1.00;1.00;;;;;32.77;53.69;101325.91;6374418;22;45309;-96
2022/05/18 17:18:14;;;;;;;;;0.00;0.00;;;;;32.77;54.25;101323.19;6402331;22;45459;-94
2022/05/18 17:20:39;;;;;;;;;1.67;0.00;;;;;32.77;54.25;101314.16;6378205;22;48171;-95
2022/05/18 17:23:05;;;;;;;;;0.00;0.00;;;;;32.74;54.70;101309.72;6417505;22;45580;-94